Adaton, MS

8:34 AM CST on March 05, 2015 (GMT -0600)
Bryan | Change Station
CLOSE
Current Station
Airport
Location: Starkville,
Elevation: 331 ft
Nearby Weather Stations
Active Advisory: Winter Storm Warning Active Notice: Local Storm Report

Elev 331 ft 33.43 °N, 88.85 °W | Updated 19 minutes ago

Light Snow
Light Snow
30 °F
Feels Like 30 °F
N
0
Wind Variable Wind from North

Today
High -- | Low -- °F
--% Chance of Precip.
Yesterday
High -- | Low -- °F
Precip. -- in
6:18 AM 5:55 PM
Full, 100% visible
Pressure 30.27 in
Visibility 1.8 miles
Clouds Scattered Clouds 600 ft
Mostly Cloudy 1000 ft
Overcast 1500 ft
Dew Point 28 °F
Humidity 93%
Rainfall 0.62 in
Snow Depth Not available.
UV 1 out of 12
Pollen 1.00 out of 12
Air Quality Not available.
Flu Activity Not available.
METAR KSTF 051415Z AUTO 00000KT 1 3/4SM -SN SCT006 BKN010 OVC015 M01/M02 A3027 RMK AO2 P0003

More Conditions Fewer Conditions

Pressure 30.27 in
Visibility 1.8 miles
Clouds Scattered Clouds 600 ft
Mostly Cloudy 1000 ft
Overcast 1500 ft
Dew Point 28 °F
Humidity 93%
Rainfall 0.62 in
Snow Depth Not available.
UV 1 out of 12
Pollen 1.00 out of 12
Air Quality Not available.
Flu Activity Not available.
METAR KSTF 051415Z AUTO 00000KT 1 3/4SM -SN SCT006 BKN010 OVC015 M01/M02 A3027 RMK AO2 P0003

More Conditions Fewer Conditions

10-Day Weather Forecast

Almanac

Astronomy

Mar. 05, 2015 Rise Set
Actual Time
Civil Twilight
Nautical Twilight
Astronomical Twilight
Moon
Length of Visible Light
Length of Day
Tomorrow will be .
, % of the Moon is Illuminated

Today's Extremes

State Highs State Lows

Community

WunderPhotos

Upload Photos

1,802,782 photos uploaded!

WunderBlogs® & News

Nearby

Air Quality

  Air Quality AQ Index Pollutant
Not available.

Snow Depth

Station Depth Elevation

Earthquake Activity

City Distance Mag. Time & Date
Minimum magnitude displayed is 2.5.

Coastal Water Temperatures

Place Temperature

Nearby Weather Stations

Winter Storm Warning
Statement as of 3:57 AM CST on March 05, 2015

... Winter Storm Warning remains in effect until 3 PM CST this
afternoon...

A Winter Storm Warning remains in effect until 3 PM CST this
afternoon.

* Timing: moderate to occasionally heavy sleet and freezing rain is
expected early this morning before tapering off between late this
morning and early this afternoon.

* Accumulation: around one quarter inch of ice accumulation with
additional accumulation of sleet of up to one half inch.

* Impacts: hazardous travel conditions are likely with power
outages possible.

* Other impacts: windy conditions combined with the falling
temperatures will result in wind chill readings in the teens.

Precautionary/preparedness actions...

A Winter Storm Warning means significant amounts of sleet and ice are
expected or occurring. Strong winds are also possible. This will make
travel very hazardous and could increase the potential for power
outages.